Time,TemperatureF,DewpointF,PressureIn,WindDirection,WindDirectionDegrees,WindSpeedMPH,WindSpeedGustMPH,Humidity,HourlyPrecipIn,Conditions,Clouds,dailyrainin,SoftwareType,DateUTC
2013-04-14 00:00:00,51.7,43.0,30.03,SSE,161,0.0,0.0,72,0.00,CLR,,0.00,WeatherDisplay:10.37,2013-04-14 04:00:00,
2013-04-14 00:10:00,51.4,43.7,30.03,SSE,161,0.0,0.0,75,0.00,CLR,,0.00,WeatherDisplay:10.37,2013-04-14 04:10:00,
2013-04-14 00:20:00,51.1,43.8,30.03,SSE,161,0.0,1.0,76,0.00,CLR,,0.00,WeatherDisplay:10.37,2013-04-14 04:20:00,
2013-04-14 00:30:00,50.8,44.2,30.03,SSE,161,0.0,1.0,78,0.00,CLR,,0.00,WeatherDisplay:10.37,2013-04-14 04:30:00,
2013-04-14 00:40:00,50.3,44.3,30.03,SSE,161,0.0,0.0,80,0.00,CLR,,0.00,WeatherDisplay:10.37,2013-04-14 04:40:00,
2013-04-14 00:50:00,49.8,44.2,30.04,SSE,161,0.0,0.0,81,0.00,CLR,,0.00,WeatherDisplay:10.37,2013-04-14 04:50:00,
2013-04-14 01:00:00,49.7,44.4,30.04,SSE,161,0.0,1.0,82,0.00,CLR,,0.00,WeatherDisplay:10.37,2013-04-14 05:00:00,
2013-04-14 01:10:00,49.6,43.7,30.04,SSE,161,0.0,0.0,80,0.00,CLR,,0.00,WeatherDisplay:10.37,2013-04-14 05:10:00,
2013-04-14 01:20:00,49.3,44.0,30.04,SSE,161,0.0,0.0,82,0.00,CLR,,0.00,WeatherDisplay:10.37,2013-04-14 05:20:00,
2013-04-14 01:30:00,49.0,44.1,30.03,SSE,161,0.0,0.0,83,0.00,CLR,,0.00,WeatherDisplay:10.37,2013-04-14 05:30:00,
2013-04-14 01:40:00,48.7,44.1,30.03,SSE,161,0.0,0.0,84,0.00,CLR,,0.00,WeatherDisplay:10.37,2013-04-14 05:40:00,
2013-04-14 01:50:00,48.4,43.5,30.03,SSE,161,0.0,0.0,83,0.00,CLR,,0.00,WeatherDisplay:10.37,2013-04-14 05:50:00,
2013-04-14 02:00:00,48.2,44.2,30.03,SSE,161,0.0,1.0,86,0.00,CLR,,0.00,WeatherDisplay:10.37,2013-04-14 06:00:00,
2013-04-14 02:10:00,47.8,43.5,30.03,SSE,161,0.0,0.0,85,0.00,CLR,,0.00,WeatherDisplay:10.37,2013-04-14 06:10:00,
2013-04-14 02:20:00,47.5,43.5,30.02,SSE,161,0.0,0.0,86,0.00,CLR,,0.00,WeatherDisplay:10.37,2013-04-14 06:20:00,
2013-04-14 02:30:00,47.4,43.7,30.02,SSE,161,0.0,0.0,87,0.00,CLR,,0.00,WeatherDisplay:10.37,2013-04-14 06:30:00,
2013-04-14 02:40:00,47.0,43.3,30.01,SSE,161,0.0,1.0,87,0.00,CLR,,0.00,WeatherDisplay:10.37,2013-04-14 06:40:00,
2013-04-14 02:50:00,46.7,42.7,30.00,SSE,161,0.0,0.0,86,0.00,CLR,,0.00,WeatherDisplay:10.37,2013-04-14 06:50:00,
2013-04-14 03:00:00,46.7,43.3,30.00,SSE,161,0.0,1.0,88,0.00,CLR,,0.00,WeatherDisplay:10.37,2013-04-14 07:00:00,
2013-04-14 03:10:00,46.6,43.2,30.00,SSE,161,0.0,0.0,88,0.00,CLR,,0.00,WeatherDisplay:10.37,2013-04-14 07:10:00,
2013-04-14 03:20:00,46.5,43.5,30.00,SSE,161,0.0,1.0,89,0.00,CLR,,0.00,WeatherDisplay:10.37,2013-04-14 07:20:00,
2013-04-14 03:30:00,46.4,43.3,29.99,SSE,161,0.0,0.0,89,0.00,CLR,,0.00,WeatherDisplay:10.37,2013-04-14 07:30:00,
2013-04-14 03:40:00,46.3,43.2,29.99,SSE,161,0.0,1.0,89,0.00,CLR,,0.00,WeatherDisplay:10.37,2013-04-14 07:40:00,
2013-04-14 03:50:00,46.2,43.2,29.99,SSE,161,0.0,0.0,89,0.00,CLR,,0.00,WeatherDisplay:10.37,2013-04-14 07:50:00,
2013-04-14 04:00:00,46.1,43.0,29.99,SSE,161,0.0,1.0,89,0.00,CLR,,0.00,WeatherDisplay:10.37,2013-04-14 08:00:00,
2013-04-14 04:10:00,46.1,42.7,29.99,SSE,161,0.0,1.0,88,0.00,CLR,,0.00,WeatherDisplay:10.37,2013-04-14 08:10:00,
2013-04-14 04:20:00,46.0,42.9,29.99,SSE,161,0.0,0.0,89,0.00,CLR,,0.00,WeatherDisplay:10.37,2013-04-14 08:20:00,
2013-04-14 04:30:00,45.9,42.8,29.99,SSE,161,0.0,1.0,89,0.00,CLR,,0.00,WeatherDisplay:10.37,2013-04-14 08:30:00,
2013-04-14 04:40:00,45.8,43.0,29.99,SSE,161,0.0,0.0,90,0.00,CLR,,0.00,WeatherDisplay:10.37,2013-04-14 08:40:00,
2013-04-14 04:50:00,45.7,42.9,29.99,SSE,161,0.0,1.0,90,0.00,CLR,,0.00,WeatherDisplay:10.37,2013-04-14 08:50:00,
2013-04-14 05:00:00,45.6,42.8,29.99,SSE,161,0.0,0.0,90,0.00,CLR,,0.00,WeatherDisplay:10.37,2013-04-14 09:00:00,
2013-04-14 05:10:00,45.4,42.7,29.99,SSE,161,0.0,0.0,90,0.00,CLR,,0.00,WeatherDisplay:10.37,2013-04-14 09:10:00,
2013-04-14 05:20:00,45.2,42.7,29.99,SSE,161,0.0,0.0,91,0.00,CLR,,0.00,WeatherDisplay:10.37,2013-04-14 09:20:00,
2013-04-14 05:30:00,45.1,42.6,29.98,SSE,161,0.0,0.0,91,0.00,CLR,,0.00,WeatherDisplay:10.37,2013-04-14 09:30:00,
2013-04-14 05:40:00,44.9,42.4,29.99,SSE,161,0.0,2.0,91,0.00,CLR,,0.00,WeatherDisplay:10.37,2013-04-14 09:40:00,
2013-04-14 05:50:00,44.9,42.4,29.99,SSE,161,0.0,1.0,91,0.00,CLR,,0.00,WeatherDisplay:10.37,2013-04-14 09:50:00,
2013-04-14 06:00:00,44.8,42.3,29.99,SSE,161,0.0,0.0,91,0.00,CLR,,0.00,WeatherDisplay:10.37,2013-04-14 10:00:00,
2013-04-14 06:10:00,44.6,42.4,30.00,SSE,161,0.0,0.0,92,0.00,CLR,,0.00,WeatherDisplay:10.37,2013-04-14 10:10:00,
2013-04-14 06:20:00,44.5,42.3,30.00,SSE,161,0.0,0.0,92,0.00,CLR,,0.00,WeatherDisplay:10.37,2013-04-14 10:20:00,
2013-04-14 06:30:00,44.5,42.3,30.01,SSE,161,0.0,0.0,92,0.00,CLR,,0.00,WeatherDisplay:10.37,2013-04-14 10:30:00,
2013-04-14 06:40:00,44.5,42.6,30.01,SSE,161,0.0,0.0,93,0.00,CLR,,0.00,WeatherDisplay:10.37,2013-04-14 10:40:00,
2013-04-14 06:50:00,44.5,42.6,30.01,SSE,161,0.0,1.0,93,0.00,CLR,,0.00,WeatherDisplay:10.37,2013-04-14 10:50:00,
2013-04-14 07:00:00,44.5,42.6,30.02,SE,124,0.0,0.0,93,0.00,CLR,,0.00,WeatherDisplay:10.37,2013-04-14 11:00:00,
2013-04-14 07:10:00,44.6,42.7,30.02,SE,124,0.0,0.0,93,0.00,CLR,,0.00,WeatherDisplay:10.37,2013-04-14 11:10:00,
2013-04-14 07:20:00,44.7,42.8,30.02,SE,124,0.0,0.0,93,0.00,CLR,,0.00,WeatherDisplay:10.37,2013-04-14 11:20:00,
2013-04-14 07:30:00,44.9,43.0,30.02,SE,124,0.0,0.0,93,0.00,CLR,,0.00,WeatherDisplay:10.37,2013-04-14 11:30:00,
2013-04-14 07:40:00,45.0,43.1,30.02,SE,124,0.0,0.0,93,0.00,CLR,,0.00,WeatherDisplay:10.37,2013-04-14 11:40:00,
2013-04-14 07:50:00,45.3,43.7,30.01,SE,124,0.0,1.0,94,0.00,CLR,,0.00,WeatherDisplay:10.37,2013-04-14 11:50:00,
2013-04-14 08:00:00,45.7,44.1,30.01,SE,124,0.0,0.0,94,0.00,CLR,,0.00,WeatherDisplay:10.37,2013-04-14 12:00:00,
2013-04-14 08:10:00,46.2,44.6,30.01,SE,124,0.0,1.0,94,0.00,CLR,,0.00,WeatherDisplay:10.37,2013-04-14 12:10:00,
2013-04-14 08:20:00,46.9,44.9,30.01,SSE,154,0.0,0.0,93,0.00,CLR,,0.00,WeatherDisplay:10.37,2013-04-14 12:20:00,
2013-04-14 08:30:00,47.7,45.2,30.01,SE,142,0.0,0.0,91,0.00,CLR,,0.00,WeatherDisplay:10.37,2013-04-14 12:30:00,
2013-04-14 08:40:00,48.5,45.4,30.01,SE,137,0.0,0.0,89,0.00,CLR,,0.00,WeatherDisplay:10.37,2013-04-14 12:40:00,
2013-04-14 08:50:00,49.2,45.8,30.01,SE,137,0.0,0.0,88,0.00,CLR,,0.00,WeatherDisplay:10.37,2013-04-14 12:50:00,
2013-04-14 09:00:00,49.7,45.7,30.01,SE,137,0.0,1.0,86,0.00,CLR,,0.00,WeatherDisplay:10.37,2013-04-14 13:00:00,
2013-04-14 09:10:00,50.2,46.2,30.00,SE,137,0.0,0.0,86,0.00,CLR,,0.00,WeatherDisplay:10.37,2013-04-14 13:10:00,
2013-04-14 09:20:00,51.1,46.1,30.01,SE,137,0.0,0.0,83,0.00,CLR,,0.00,WeatherDisplay:10.37,2013-04-14 13:20:00,
2013-04-14 09:30:00,52.2,45.9,30.01,SE,137,0.0,0.0,79,0.00,CLR,,0.00,WeatherDisplay:10.37,2013-04-14 13:30:00,
2013-04-14 09:40:00,53.3,45.2,30.01,SE,137,0.0,0.0,74,0.00,CLR,,0.00,WeatherDisplay:10.37,2013-04-14 13:40:00,
2013-04-14 09:50:00,54.2,45.7,30.01,SE,137,0.0,1.0,73,0.00,CLR,,0.00,WeatherDisplay:10.37,2013-04-14 13:50:00,
2013-04-14 10:00:00,54.9,46.4,30.01,SE,137,0.0,1.0,73,0.00,CLR,,0.00,WeatherDisplay:10.37,2013-04-14 14:00:00,
2013-04-14 10:10:00,55.6,47.4,30.00,SE,137,0.0,2.0,74,0.00,CLR,,0.00,WeatherDisplay:10.37,2013-04-14 14:10:00,
2013-04-14 10:20:00,56.4,47.9,30.00,SE,137,0.0,4.0,73,0.00,CLR,,0.00,WeatherDisplay:10.37,2013-04-14 14:20:00,
2013-04-14 10:30:00,57.3,46.8,30.00,SE,137,0.0,1.0,68,0.00,CLR,,0.00,WeatherDisplay:10.37,2013-04-14 14:30:00,
2013-04-14 10:40:00,58.4,47.5,30.00,SSW,194,2.0,4.0,67,0.00,CLR,,0.00,WeatherDisplay:10.37,2013-04-14 14:40:00,
2013-04-14 10:50:00,59.2,46.2,30.01,SW,219,1.0,5.0,62,0.00,CLR,,0.00,WeatherDisplay:10.37,2013-04-14 14:50:00,
2013-04-14 11:00:00,59.9,46.4,30.01,SSW,210,2.0,5.0,61,0.00,CLR,,0.00,WeatherDisplay:10.37,2013-04-14 15:00:00,
2013-04-14 11:10:00,60.8,46.3,30.01,SW,229,2.0,7.0,59,0.00,CLR,,0.00,WeatherDisplay:10.37,2013-04-14 15:10:00,
2013-04-14 11:20:00,61.4,44.1,30.02,SSW,203,3.0,10.0,53,0.00,CLR,,0.00,WeatherDisplay:10.37,2013-04-14 15:20:00,
2013-04-14 11:30:00,61.8,43.5,30.02,SW,228,3.0,8.0,51,0.00,CLR,,0.00,WeatherDisplay:10.37,2013-04-14 15:30:00,
2013-04-14 11:40:00,62.0,43.7,30.02,SW,218,1.0,8.0,51,0.00,CLR,,0.00,WeatherDisplay:10.37,2013-04-14 15:40:00,
2013-04-14 11:50:00,62.3,44.4,30.02,SW,235,3.0,10.0,52,0.00,CLR,,0.00,WeatherDisplay:10.37,2013-04-14 15:50:00,
2013-04-14 12:00:00,62.5,43.6,30.02,SW,218,3.0,12.0,50,0.00,CLR,,0.00,WeatherDisplay:10.37,2013-04-14 16:00:00,
2013-04-14 12:10:00,62.8,43.9,30.02,SW,222,6.0,12.0,50,0.00,CLR,,0.00,WeatherDisplay:10.37,2013-04-14 16:10:00,
2013-04-14 12:20:00,62.9,44.5,30.01,SSW,202,5.0,12.0,51,0.00,CLR,,0.00,WeatherDisplay:10.37,2013-04-14 16:20:00,
2013-04-14 12:30:00,63.0,45.1,30.01,SW,216,1.0,8.0,52,0.00,CLR,,0.00,WeatherDisplay:10.37,2013-04-14 16:30:00,
2013-04-14 12:40:00,63.0,44.6,30.00,South,176,6.0,7.0,51,0.00,SCT,,0.00,WeatherDisplay:10.37,2013-04-14 16:40:00,
2013-04-14 12:50:00,63.0,45.1,30.00,South,182,3.0,12.0,52,0.00,SCT,,0.00,WeatherDisplay:10.37,2013-04-14 16:50:00,
2013-04-14 13:00:00,62.9,45.5,30.00,South,186,1.0,12.0,53,0.00,SCT,,0.00,WeatherDisplay:10.37,2013-04-14 17:00:00,
2013-04-14 13:10:00,62.9,45.0,30.00,SSW,205,3.0,7.0,52,0.00,CLR,,0.00,WeatherDisplay:10.37,2013-04-14 17:10:00,
2013-04-14 13:20:00,62.9,46.0,30.00,SW,227,3.0,12.0,54,0.00,CLR,,0.00,WeatherDisplay:10.37,2013-04-14 17:20:00,
2013-04-14 13:30:00,62.8,45.9,30.01,SSW,213,6.0,10.0,54,0.00,CLR,,0.00,WeatherDisplay:10.37,2013-04-14 17:30:00,
2013-04-14 13:40:00,62.6,46.7,30.01,SW,222,7.0,12.0,56,0.00,BKN,,0.00,WeatherDisplay:10.37,2013-04-14 17:40:00,
2013-04-14 13:50:00,62.5,46.1,30.01,SSW,204,6.0,12.0,55,0.00,OVC,,0.00,WeatherDisplay:10.37,2013-04-14 17:50:00,
2013-04-14 14:00:00,62.5,46.6,30.01,SSW,211,6.0,15.0,56,0.00,OVC,,0.00,WeatherDisplay:10.37,2013-04-14 18:00:00,
2013-04-14 14:10:00,62.6,47.1,30.02,SSW,210,9.0,15.0,57,0.00,BKN,,0.00,WeatherDisplay:10.37,2013-04-14 18:10:00,
2013-04-14 14:20:00,62.8,46.9,30.02,SSW,208,5.0,18.0,56,0.00,BKN,,0.00,WeatherDisplay:10.37,2013-04-14 18:20:00,
2013-04-14 14:30:00,62.5,47.5,30.02,SSW,200,8.0,21.0,58,0.00,BKN,,0.00,WeatherDisplay:10.37,2013-04-14 18:30:00,
2013-04-14 14:40:00,61.5,49.2,30.03,South,191,6.0,17.0,64,0.00,OVC,,0.00,WeatherDisplay:10.37,2013-04-14 18:40:00,
2013-04-14 14:50:00,60.2,50.8,30.03,SSW,193,5.0,12.0,71,0.00,-RA,,0.00,WeatherDisplay:10.37,2013-04-14 18:50:00,
2013-04-14 15:00:00,58.9,51.0,30.03,South,172,3.0,8.0,75,0.00,-RA,,0.00,WeatherDisplay:10.37,2013-04-14 19:00:00,
2013-04-14 15:10:00,58.1,51.7,30.02,South,189,3.0,10.0,79,0.00,-RA,,0.00,WeatherDisplay:10.37,2013-04-14 19:10:00,
2013-04-14 15:20:00,57.6,51.8,30.02,South,183,1.0,7.0,81,0.01,-RA,,0.01,WeatherDisplay:10.37,2013-04-14 19:20:00,
2013-04-14 15:30:00,57.3,52.2,30.02,South,169,2.0,9.0,83,0.00,-RA,,0.01,WeatherDisplay:10.37,2013-04-14 19:30:00,
2013-04-14 15:40:00,57.0,52.2,30.01,SSE,162,3.0,9.0,84,0.00,-RA,,0.01,WeatherDisplay:10.37,2013-04-14 19:40:00,
2013-04-14 15:50:00,56.6,52.1,30.01,SSE,160,3.0,12.0,85,0.00,-RA,,0.01,WeatherDisplay:10.37,2013-04-14 19:50:00,
2013-04-14 16:00:00,56.6,52.4,29.99,SE,139,5.0,7.0,86,0.01,-RA,,0.02,WeatherDisplay:10.37,2013-04-14 20:00:00,
2013-04-14 16:10:00,56.5,53.0,29.98,SE,132,0.0,6.0,88,0.00,-RA,,0.02,WeatherDisplay:10.37,2013-04-14 20:10:00,
2013-04-14 16:20:00,56.6,53.4,29.97,SE,136,6.0,8.0,89,0.00,-RA,,0.02,WeatherDisplay:10.37,2013-04-14 20:20:00,
2013-04-14 16:30:00,56.9,54.0,29.95,ESE,115,3.0,9.0,90,0.00,-RA,,0.02,WeatherDisplay:10.37,2013-04-14 20:30:00,
2013-04-14 16:40:00,57.1,53.6,29.94,East,99,2.0,8.0,88,0.00,OVC,,0.02,WeatherDisplay:10.37,2013-04-14 20:40:00,
2013-04-14 16:50:00,57.5,54.0,29.94,East,96,3.0,8.0,88,0.00,BKN,,0.02,WeatherDisplay:10.37,2013-04-14 20:50:00,
2013-04-14 17:00:00,57.7,53.9,29.93,ESE,113,6.0,12.0,87,0.00,BKN,,0.02,WeatherDisplay:10.37,2013-04-14 21:00:00,
2013-04-14 17:10:00,58.1,53.9,29.93,ESE,114,6.0,8.0,86,0.00,BKN,,0.02,WeatherDisplay:10.37,2013-04-14 21:10:00,
2013-04-14 17:20:00,58.3,54.1,29.94,SSE,160,5.0,7.0,86,0.00,BKN,,0.02,WeatherDisplay:10.37,2013-04-14 21:20:00,
2013-04-14 17:30:00,58.4,53.6,29.94,ESE,123,6.0,8.0,84,0.00,BKN,,0.02,WeatherDisplay:10.37,2013-04-14 21:30:00,
2013-04-14 17:40:00,58.5,53.7,29.93,SSE,160,2.0,10.0,84,0.00,BKN,,0.02,WeatherDisplay:10.37,2013-04-14 21:40:00,
2013-04-14 17:50:00,58.6,52.8,29.92,South,170,2.0,16.0,81,0.00,OVC,,0.02,WeatherDisplay:10.37,2013-04-14 21:50:00,
2013-04-14 18:00:00,58.7,52.5,29.93,South,183,1.0,13.0,80,0.00,OVC,,0.02,WeatherDisplay:10.37,2013-04-14 22:00:00,
2013-04-14 18:10:00,58.7,52.2,29.93,South,186,2.0,7.0,79,0.00,OVC,,0.02,WeatherDisplay:10.37,2013-04-14 22:10:00,
2013-04-14 18:20:00,58.8,52.3,29.92,SSE,168,1.0,7.0,79,0.00,OVC,,0.02,WeatherDisplay:10.37,2013-04-14 22:20:00,
2013-04-14 18:30:00,58.8,52.3,29.92,SSE,162,3.0,9.0,79,0.00,OVC,,0.02,WeatherDisplay:10.37,2013-04-14 22:30:00,
2013-04-14 18:41:00,58.8,52.3,29.92,South,187,3.0,7.0,79,0.00,OVC,,0.02,WeatherDisplay:10.37,2013-04-14 22:41:00,
2013-04-14 18:50:00,58.9,52.1,29.93,SSE,156,2.0,6.0,78,0.00,OVC,,0.02,WeatherDisplay:10.37,2013-04-14 22:50:00,
2013-04-14 19:10:00,58.7,52.2,29.93,WSW,251,0.0,5.0,79,0.00,OVC,,0.02,WeatherDisplay:10.37,2013-04-14 23:10:00,
2013-04-14 19:20:00,58.2,52.4,29.93,SSE,156,5.0,12.0,81,0.00,OVC,,0.02,WeatherDisplay:10.37,2013-04-14 23:20:00,
2013-04-14 19:40:00,56.7,52.9,29.94,SW,215,0.0,1.0,87,0.01, +DZ,,0.03,WeatherDisplay:10.37,2013-04-14 23:40:00,
2013-04-14 19:50:00,56.2,53.0,29.94,SW,215,0.0,0.0,89,0.00,OVC,,0.03,WeatherDisplay:10.37,2013-04-14 23:50:00,
2013-04-14 20:01:00,55.8,53.2,29.94,SW,215,0.0,1.0,91,0.00,OVC,,0.03,WeatherDisplay:10.37,2013-04-15 00:01:00,
2013-04-14 20:10:00,55.5,53.2,29.94,SW,215,0.0,0.0,92,0.01,RA,,0.04,WeatherDisplay:10.37,2013-04-15 00:10:00,
2013-04-14 20:20:00,55.3,53.3,29.93,SW,215,0.0,1.0,93,0.00,OVC,,0.04,WeatherDisplay:10.37,2013-04-15 00:20:00,
2013-04-14 20:31:00,55.1,53.1,29.93,SW,215,0.0,0.0,93,0.00,OVC,,0.04,WeatherDisplay:10.37,2013-04-15 00:31:00,
2013-04-14 20:40:00,55.0,53.0,29.93,SSW,207,0.0,4.0,93,0.00,OVC,,0.04,WeatherDisplay:10.37,2013-04-15 00:40:00,
2013-04-14 20:50:00,54.9,52.9,29.93,South,169,0.0,1.0,93,0.00, +DZ,,0.04,WeatherDisplay:10.37,2013-04-15 00:50:00,
2013-04-14 21:01:00,55.0,53.0,29.93,South,169,1.0,2.0,93,0.00, +DZ,,0.04,WeatherDisplay:10.37,2013-04-15 01:01:00,
2013-04-14 21:10:00,55.2,53.2,29.94,South,175,2.0,5.0,93,0.00,OVC,,0.04,WeatherDisplay:10.37,2013-04-15 01:10:00,
2013-04-14 21:20:00,55.5,53.2,29.94,SSW,203,1.0,5.0,92,0.00,OVC,,0.04,WeatherDisplay:10.37,2013-04-15 01:20:00,
2013-04-14 21:31:00,55.6,53.0,29.94,SSW,207,0.0,2.0,91,0.00,OVC,,0.04,WeatherDisplay:10.37,2013-04-15 01:31:00,
2013-04-14 21:40:00,55.5,53.2,29.95,SSW,207,0.0,1.0,92,0.00,-DZ,,0.04,WeatherDisplay:10.37,2013-04-15 01:40:00,
2013-04-14 21:50:00,55.3,53.0,29.94,SSW,207,0.0,2.0,92,0.00,OVC,,0.04,WeatherDisplay:10.37,2013-04-15 01:50:00,
2013-04-14 22:00:00,55.2,53.2,29.94,SSW,207,0.0,0.0,93,0.00,OVC,,0.04,WeatherDisplay:10.37,2013-04-15 02:00:00,
2013-04-14 22:10:00,55.1,53.1,29.94,SSW,207,0.0,0.0,93,0.00,OVC,,0.04,WeatherDisplay:10.37,2013-04-15 02:10:00,
2013-04-14 22:20:00,55.0,53.3,29.94,SSW,207,1.0,2.0,94,0.00,OVC,,0.04,WeatherDisplay:10.37,2013-04-15 02:20:00,
2013-04-14 22:30:00,54.9,53.2,29.93,SSW,207,0.0,1.0,94,0.00,OVC,,0.04,WeatherDisplay:10.37,2013-04-15 02:30:00,
2013-04-14 22:40:00,54.9,53.2,29.93,SSW,207,0.0,0.0,94,0.00,OVC,,0.04,WeatherDisplay:10.37,2013-04-15 02:40:00,
2013-04-14 22:50:00,54.8,53.1,29.93,SSW,207,0.0,0.0,94,0.00,OVC,,0.04,WeatherDisplay:10.37,2013-04-15 02:50:00,
2013-04-14 23:00:00,54.8,53.1,29.93,SSW,207,0.0,0.0,94,0.00,OVC,,0.04,WeatherDisplay:10.37,2013-04-15 03:00:00,
2013-04-14 23:10:00,54.8,53.4,29.93,SSW,207,0.0,0.0,95,0.00,OVC,,0.04,WeatherDisplay:10.37,2013-04-15 03:10:00,
2013-04-14 23:20:00,54.9,53.5,29.93,SSW,207,0.0,0.0,95,0.00,OVC,,0.04,WeatherDisplay:10.37,2013-04-15 03:20:00,
2013-04-14 23:30:00,55.0,53.6,29.93,SSW,207,0.0,0.0,95,0.00,OVC,,0.04,WeatherDisplay:10.37,2013-04-15 03:30:00,
2013-04-14 23:40:00,55.2,53.7,29.94,SSW,207,1.0,3.0,95,0.00,OVC,,0.04,WeatherDisplay:10.37,2013-04-15 03:40:00,
2013-04-14 23:50:00,55.5,53.8,29.94,SSW,207,0.0,2.0,94,0.00,OVC,,0.04,WeatherDisplay:10.37,2013-04-15 03:50:00,